Time;durP1;ratioP1;P1;durP2;ratioP2;P2;SDS_P1;SDS_P2;PMS_P1;PMS_P2;Temp;Humidity;BMP_temperature;BMP_pressure;BME280_temperature;BME280_humidity;BME280_pressure;Samples;Min_cycle;Max_cycle;Signal;HPM_P1;HPM_P2
2023/12/24 00:01:16;;;;;;;3.50;2.03;;;17.60;73.60;;;;;;5017093;28;20449;-79
2023/12/24 00:03:44;;;;;;;2.93;2.23;;;17.50;73.30;;;;;;5007275;28;20483;-80
2023/12/24 00:06:14;;;;;;;3.97;1.90;;;17.60;73.40;;;;;;5016524;28;20444;-80
2023/12/24 00:08:42;;;;;;;4.33;2.07;;;17.60;73.40;;;;;;5019196;28;20554;-80
2023/12/24 00:11:11;;;;;;;4.50;2.10;;;17.50;73.30;;;;;;5012692;28;20448;-77
2023/12/24 00:13:40;;;;;;;3.63;2.17;;;17.50;73.40;;;;;;5011524;28;20557;-79
2023/12/24 00:16:09;;;;;;;2.37;2.07;;;17.60;73.60;;;;;;5012399;28;20468;-79
2023/12/24 00:18:37;;;;;;;3.80;1.97;;;17.50;73.10;;;;;;5012456;28;20468;-79
2023/12/24 00:21:06;;;;;;;2.50;2.07;;;17.60;73.40;;;;;;5014767;28;20936;-79
2023/12/24 00:23:33;;;;;;;8.07;1.90;;;17.60;73.20;;;;;;5012380;28;20461;-78
2023/12/24 00:26:01;;;;;;;2.47;2.00;;;17.60;73.20;;;;;;5017966;28;20511;-79
2023/12/24 00:28:29;;;;;;;2.30;1.90;;;17.60;73.30;;;;;;5011307;28;20436;-79
2023/12/24 00:30:58;;;;;;;2.20;1.97;;;17.60;73.30;;;;;;5011964;28;21023;-79
2023/12/24 00:33:26;;;;;;;2.60;1.57;;;17.60;73.20;;;;;;5012281;28;21029;-79
2023/12/24 00:35:54;;;;;;;5.63;2.30;;;17.60;73.30;;;;;;5011126;28;20460;-79
2023/12/24 00:38:22;;;;;;;2.50;1.70;;;17.50;73.00;;;;;;5013709;28;20453;-80
2023/12/24 00:40:50;;;;;;;2.40;2.17;;;17.60;73.10;;;;;;5017721;28;20479;-80
2023/12/24 00:43:18;;;;;;;4.60;2.33;;;17.60;73.40;;;;;;5008643;28;20533;-79
2023/12/24 00:45:47;;;;;;;6.30;1.97;;;17.50;73.30;;;;;;5016564;28;20448;-79
2023/12/24 00:48:17;;;;;;;3.03;2.10;;;17.50;73.20;;;;;;5007839;28;20964;-79
2023/12/24 00:50:45;;;;;;;2.00;1.90;;;17.50;73.30;;;;;;5016771;28;20477;-79
2023/12/24 00:53:15;;;;;;;3.20;2.10;;;17.50;73.40;;;;;;5039094;22;20460;-79
2023/12/24 00:55:44;;;;;;;3.10;2.10;;;17.50;73.50;;;;;;5056991;28;20439;-77
2023/12/24 00:58:12;;;;;;;3.10;1.70;;;17.50;73.30;;;;;;5054923;28;20468;-77
2023/12/24 01:00:40;;;;;;;3.37;2.00;;;17.50;73.40;;;;;;5051728;28;20490;-78
2023/12/24 01:03:08;;;;;;;4.20;2.37;;;17.50;73.10;;;;;;5047238;28;20423;-76
2023/12/24 01:05:37;;;;;;;4.80;1.80;;;17.50;73.60;;;;;;5038160;28;20443;-78
2023/12/24 01:08:06;;;;;;;2.10;1.90;;;17.50;73.30;;;;;;5030894;28;20468;-78
2023/12/24 01:10:34;;;;;;;2.63;1.90;;;17.60;73.40;;;;;;5038413;28;20459;-77
2023/12/24 01:13:02;;;;;;;2.60;1.50;;;17.50;73.20;;;;;;5030358;28;20478;-76
2023/12/24 01:15:30;;;;;;;4.30;2.00;;;17.50;73.20;;;;;;5024343;28;20497;-77
2023/12/24 01:17:59;;;;;;;4.47;2.17;;;17.60;73.20;;;;;;5035918;28;20455;-78
2023/12/24 01:20:28;;;;;;;2.30;2.07;;;17.50;73.10;;;;;;5024933;28;20454;-77
2023/12/24 01:22:57;;;;;;;3.13;2.20;;;17.50;73.10;;;;;;5029851;28;20440;-78
2023/12/24 01:25:26;;;;;;;2.70;2.03;;;17.50;73.20;;;;;;5031188;28;20448;-78
2023/12/24 01:27:54;;;;;;;3.07;1.73;;;17.50;73.30;;;;;;5034785;28;20482;-80
2023/12/24 01:30:22;;;;;;;3.27;1.80;;;17.50;73.20;;;;;;5031501;28;20443;-77
2023/12/24 01:32:50;;;;;;;2.33;2.07;;;17.50;73.10;;;;;;5019039;28;20451;-77
2023/12/24 01:35:18;;;;;;;2.00;1.73;;;17.50;73.40;;;;;;5036178;28;20522;-79
2023/12/24 01:37:46;;;;;;;2.50;1.90;;;17.60;73.30;;;;;;5035565;28;20479;-78
2023/12/24 01:40:16;;;;;;;2.17;1.90;;;17.50;73.20;;;;;;5035748;28;20549;-78
2023/12/24 01:42:45;;;;;;;3.77;2.07;;;17.50;73.20;;;;;;5031473;28;20502;-79
2023/12/24 01:45:13;;;;;;;3.20;2.10;;;17.50;73.10;;;;;;5021997;28;20494;-78
2023/12/24 01:47:41;;;;;;;3.57;1.83;;;17.50;73.20;;;;;;5035697;28;20432;-80
2023/12/24 01:50:09;;;;;;;2.50;2.00;;;17.50;73.30;;;;;;5031665;28;20448;-79
2023/12/24 01:52:37;;;;;;;3.40;2.13;;;17.50;73.00;;;;;;5031940;28;20533;-78
2023/12/24 01:55:07;;;;;;;2.77;1.70;;;17.50;73.10;;;;;;5035539;28;20471;-79
2023/12/24 01:57:37;;;;;;;2.33;2.03;;;17.50;73.30;;;;;;5036000;28;20515;-79
2023/12/24 02:00:07;;;;;;;2.50;2.17;;;17.50;73.10;;;;;;5029993;28;20468;-79
2023/12/24 02:02:35;;;;;;;3.67;2.10;;;17.50;73.30;;;;;;5030696;28;20447;-77
2023/12/24 02:05:03;;;;;;;5.27;1.70;;;17.50;73.00;;;;;;5031949;28;20470;-77
2023/12/24 02:07:34;;;;;;;7.13;2.20;;;17.50;73.10;;;;;;5035032;28;20452;-78
2023/12/24 02:10:02;;;;;;;2.90;1.83;;;17.50;73.00;;;;;;5026585;28;20503;-78
2023/12/24 02:12:31;;;;;;;7.97;2.10;;;17.50;73.50;;;;;;5026088;28;20479;-79
2023/12/24 02:15:00;;;;;;;3.20;1.80;;;17.50;73.20;;;;;;5026469;28;20477;-81
2023/12/24 02:17:28;;;;;;;1.90;1.77;;;17.50;73.40;;;;;;5034579;28;21012;-77
2023/12/24 02:19:57;;;;;;;2.70;1.77;;;17.50;73.30;;;;;;5030997;28;20452;-80
2023/12/24 02:22:27;;;;;;;2.60;2.03;;;17.50;73.00;;;;;;5024240;28;20479;-80
2023/12/24 02:24:55;;;;;;;3.53;2.10;;;17.50;73.30;;;;;;5026227;28;20474;-79
2023/12/24 02:27:26;;;;;;;3.73;1.97;;;17.50;73.20;;;;;;5029183;28;20542;-82
2023/12/24 02:29:56;;;;;;;2.90;1.80;;;17.50;73.00;;;;;;5030223;28;20551;-77
2023/12/24 02:32:24;;;;;;;1.93;1.70;;;17.50;73.10;;;;;;5034073;28;20523;-81
2023/12/24 02:34:52;;;;;;;5.80;2.43;;;17.50;73.10;;;;;;5024541;28;20478;-77
2023/12/24 02:37:20;;;;;;;2.60;2.00;;;17.50;73.10;;;;;;5036143;28;20471;-77
2023/12/24 02:39:49;;;;;;;2.90;1.80;;;17.50;72.90;;;;;;5034059;28;20474;-80
2023/12/24 02:42:17;;;;;;;4.17;2.00;;;17.50;73.10;;;;;;5034207;28;20471;-77
2023/12/24 02:44:46;;;;;;;1.97;1.80;;;17.50;73.10;;;;;;5033834;28;20463;-77
2023/12/24 02:47:15;;;;;;;2.07;1.80;;;17.50;73.10;;;;;;5034617;28;20435;-78
2023/12/24 02:49:43;;;;;;;1.70;1.60;;;17.50;72.90;;;;;;5035438;28;20452;-80
2023/12/24 02:52:11;;;;;;;2.80;1.47;;;17.50;73.10;;;;;;5034550;28;20432;-80
2023/12/24 02:54:39;;;;;;;3.37;2.00;;;17.50;73.30;;;;;;5033558;28;20539;-78
2023/12/24 02:57:08;;;;;;;3.57;1.90;;;17.50;73.00;;;;;;5030540;28;20444;-78
2023/12/24 02:59:36;;;;;;;2.10;1.90;;;17.50;73.10;;;;;;5032588;28;20463;-82
2023/12/24 03:02:04;;;;;;;3.20;1.77;;;17.50;72.90;;;;;;5031096;28;20442;-78
2023/12/24 03:04:32;;;;;;;3.20;2.30;;;17.50;73.00;;;;;;5033670;28;20467;-83
2023/12/24 03:06:59;;;;;;;1.60;1.50;;;17.50;73.10;;;;;;5032653;28;20510;-80
2023/12/24 03:09:27;;;;;;;3.00;1.70;;;17.50;73.00;;;;;;5032047;28;20501;-81
2023/12/24 03:11:55;;;;;;;2.70;1.80;;;17.50;72.70;;;;;;5033467;28;20514;-78
2023/12/24 03:14:25;;;;;;;1.93;1.73;;;17.50;73.30;;;;;;5030718;28;20475;-77
2023/12/24 03:16:54;;;;;;;2.40;1.50;;;17.50;73.00;;;;;;5034499;28;20439;-79
2023/12/24 03:19:22;;;;;;;4.30;1.83;;;17.50;72.90;;;;;;5034261;28;20507;-81
2023/12/24 03:21:50;;;;;;;1.80;1.70;;;17.50;73.00;;;;;;5033716;28;20435;-78
2023/12/24 03:24:18;;;;;;;1.63;1.53;;;17.50;73.00;;;;;;5032347;28;20502;-80
2023/12/24 03:26:46;;;;;;;3.57;1.70;;;17.50;72.80;;;;;;5025668;28;20460;-79
2023/12/24 03:29:13;;;;;;;1.90;1.50;;;17.50;73.30;;;;;;5036453;28;20514;-77
2023/12/24 03:31:43;;;;;;;1.90;1.80;;;17.50;73.00;;;;;;5036819;28;20444;-81
2023/12/24 03:34:10;;;;;;;1.77;1.60;;;17.50;73.00;;;;;;5034644;28;20527;-82
2023/12/24 03:36:38;;;;;;;2.40;2.00;;;17.50;73.00;;;;;;5036096;28;20463;-77
2023/12/24 03:39:06;;;;;;;2.10;1.70;;;17.50;73.00;;;;;;5034013;28;20451;-77
2023/12/24 03:41:34;;;;;;;2.83;1.70;;;17.50;73.70;;;;;;5033641;28;20561;-79
2023/12/24 03:44:03;;;;;;;2.70;1.77;;;17.50;72.80;;;;;;5033589;28;20470;-78
2023/12/24 03:46:32;;;;;;;1.60;1.50;;;17.50;72.90;;;;;;5034899;28;20450;-77
2023/12/24 03:49:02;;;;;;;3.00;1.80;;;17.50;72.80;;;;;;5036837;28;20453;-78
2023/12/24 03:51:30;;;;;;;2.80;1.90;;;17.50;72.40;;;;;;5038083;28;20456;-79
2023/12/24 03:53:59;;;;;;;1.67;1.20;;;17.50;72.90;;;;;;5035821;28;20903;-78
2023/12/24 03:56:27;;;;;;;1.60;1.50;;;17.50;72.90;;;;;;5038126;28;20546;-79
2023/12/24 03:58:55;;;;;;;1.43;1.30;;;17.50;72.80;;;;;;5037759;28;20447;-78
2023/12/24 04:01:25;;;;;;;2.10;1.60;;;17.50;72.70;;;;;;5034653;28;20482;-81
2023/12/24 04:03:53;;;;;;;1.83;1.40;;;17.50;72.90;;;;;;5026875;28;20504;-78
2023/12/24 04:06:23;;;;;;;3.90;1.87;;;17.50;72.30;;;;;;5036457;28;20427;-77
2023/12/24 04:32:08;;;;;;;1.70;1.60;;;17.40;73.50;;;;;;5036328;28;20394;-78
2023/12/24 04:34:36;;;;;;;1.97;1.43;;;17.40;73.60;;;;;;5032977;28;20471;-78
2023/12/24 04:37:04;;;;;;;1.60;1.30;;;17.30;73.20;;;;;;5035444;28;20452;-79
2023/12/24 04:51:44;;;;;;;2.57;1.47;;;17.40;73.50;;;;;;5029332;28;20454;-76
2023/12/24 04:58:01;;;;;;;1.20;1.10;;;17.30;73.40;;;;;;5031069;28;20485;-76
2023/12/24 05:00:29;;;;;;;1.33;1.20;;;17.30;73.50;;;;;;5031889;28;20982;-78
2023/12/24 05:02:58;;;;;;;1.50;1.40;;;17.40;73.40;;;;;;5036349;28;20455;-81
2023/12/24 05:05:26;;;;;;;1.33;1.23;;;17.40;73.50;;;;;;5036081;28;20448;-78
2023/12/24 05:38:10;;;;;;;1.20;1.20;;;17.30;73.50;;;;;;5025249;28;20461;-79
2023/12/24 05:59:31;;;;;;;0.90;0.90;;;17.40;73.80;;;;;;5031185;28;20606;-78
2023/12/24 06:05:40;;;;;;;1.20;1.10;;;17.40;73.60;;;;;;5024757;28;20511;-81
2023/12/24 06:08:09;;;;;;;1.30;1.20;;;17.40;73.10;;;;;;5020012;28;20893;-80
2023/12/24 06:33:02;;;;;;;1.60;1.17;;;17.40;73.70;;;;;;5024200;28;20443;-83
2023/12/24 06:35:31;;;;;;;1.20;1.10;;;17.40;73.80;;;;;;5023626;28;20480;-80
2023/12/24 06:37:59;;;;;;;1.37;1.27;;;17.40;73.20;;;;;;5020833;28;20448;-77
2023/12/24 06:40:27;;;;;;;1.13;1.10;;;17.40;73.20;;;;;;5020007;28;20471;-81
2023/12/24 07:02:26;;;;;;;1.57;1.40;;;17.40;73.60;;;;;;5020856;28;20421;-79
2023/12/24 07:04:55;;;;;;;1.77;1.40;;;17.40;73.80;;;;;;5006641;28;20511;-77
2023/12/24 07:07:24;;;;;;;1.90;1.20;;;17.40;73.80;;;;;;5008798;28;20445;-79
2023/12/24 07:09:52;;;;;;;0.90;0.90;;;17.50;73.30;;;;;;5008224;28;20456;-79
2023/12/24 07:12:21;;;;;;;1.90;1.23;;;17.50;73.20;;;;;;5011228;28;20515;-80
2023/12/24 07:37:35;;;;;;;1.30;1.20;;;17.50;73.60;;;;;;5002874;28;20464;-84
2023/12/24 07:40:05;;;;;;;1.80;1.70;;;17.50;73.60;;;;;;5017455;28;20441;-78
2023/12/24 07:42:33;;;;;;;1.63;1.53;;;17.50;73.30;;;;;;5014627;28;20447;-80
2023/12/24 07:45:04;;;;;;;1.70;1.60;;;17.60;73.30;;;;;;5011993;28;20469;-81
2023/12/24 07:59:32;;;;;;;1.40;1.30;;;17.60;73.30;;;;;;5011581;28;20568;-77
2023/12/24 08:05:48;;;;;;;1.70;1.57;;;17.60;73.60;;;;;;5006996;28;20470;-81
2023/12/24 08:08:17;;;;;;;1.60;1.50;;;17.60;73.60;;;;;;5002668;28;20506;-77
2023/12/24 08:10:45;;;;;;;1.57;1.47;;;17.60;73.30;;;;;;5011799;28;20444;-78
2023/12/24 08:13:14;;;;;;;1.70;1.60;;;17.70;73.30;;;;;;5011190;28;20459;-78
2023/12/24 08:15:44;;;;;;;1.50;1.40;;;17.70;72.90;;;;;;5011101;28;20479;-78
2023/12/24 08:40:28;;;;;;;1.67;1.57;;;17.70;73.50;;;;;;5004312;28;20460;-81
2023/12/24 08:46:37;;;;;;;1.60;1.50;;;17.70;73.50;;;;;;4999744;28;20411;-77
2023/12/24 09:08:23;;;;;;;1.40;1.30;;;17.80;73.50;;;;;;5006630;28;20539;-77
2023/12/24 09:10:52;;;;;;;1.40;1.40;;;17.80;73.40;;;;;;5007234;28;20455;-78
2023/12/24 09:13:21;;;;;;;1.30;1.20;;;17.80;73.40;;;;;;5011566;28;20539;-78
2023/12/24 09:15:50;;;;;;;1.30;1.30;;;17.80;73.10;;;;;;5008624;28;20518;-78
2023/12/24 09:18:19;;;;;;;2.00;1.70;;;17.90;73.30;;;;;;4991236;28;20449;-80
2023/12/24 09:33:07;;;;;;;1.37;1.27;;;18.00;73.30;;;;;;5006477;28;20443;-82
2023/12/24 09:39:25;;;;;;;1.60;1.50;;;18.00;73.60;;;;;;5001077;28;20424;-83
2023/12/24 09:41:54;;;;;;;1.30;1.30;;;17.90;73.20;;;;;;5013614;28;20514;-79
2023/12/24 09:44:23;;;;;;;1.60;1.50;;;18.00;73.40;;;;;;5012090;28;20491;-77
2023/12/24 09:46:52;;;;;;;1.83;1.60;;;18.00;73.10;;;;;;5012111;28;20448;-80
2023/12/24 09:49:21;;;;;;;1.60;1.50;;;18.10;72.90;;;;;;5010733;28;20448;-78
2023/12/24 10:03:22;;;;;;;1.70;1.20;;;18.10;73.40;;;;;;5003747;28;20519;-80
2023/12/24 10:10:01;;;;;;;1.10;1.00;;;18.10;73.30;;;;;;5004095;28;20427;-77
2023/12/24 10:17:01;;;;;;;1.97;1.77;;;18.20;73.40;;;;;;4987139;28;20542;-77
2023/12/24 10:19:32;;;;;;;1.50;1.40;;;18.20;73.20;;;;;;5009851;28;20441;-80
2023/12/24 10:40:31;;;;;;;1.73;1.20;;;18.30;73.30;;;;;;5006941;28;20445;-81
2023/12/24 10:42:59;;;;;;;1.40;1.30;;;18.30;73.10;;;;;;5008058;28;20459;-78
2023/12/24 10:45:28;;;;;;;1.37;1.27;;;18.30;73.00;;;;;;5011235;28;20491;-78
2023/12/24 10:47:57;;;;;;;1.70;1.60;;;18.30;73.30;;;;;;5008883;28;20461;-80
2023/12/24 10:50:27;;;;;;;1.30;1.20;;;18.40;73.20;;;;;;4996666;28;20453;-79
2023/12/24 11:04:52;;;;;;;1.30;1.20;;;18.40;73.10;;;;;;5011252;28;20543;-78
2023/12/24 11:17:50;;;;;;;1.20;1.20;;;18.50;73.20;;;;;;4986546;28;20571;-79
2023/12/24 11:20:41;;;;;;;1.47;1.37;;;18.50;73.20;;;;;;5010723;28;20506;-78
2023/12/24 11:23:14;;;;;;;1.30;1.20;;;18.50;73.30;;;;;;5010773;28;20445;-79
2023/12/24 11:25:46;;;;;;;1.50;1.40;;;18.50;73.10;;;;;;5008580;28;20471;-78
2023/12/24 11:28:35;;;;;;;3.77;1.50;;;18.50;73.00;;;;;;5010812;28;20452;-79
2023/12/24 11:31:06;;;;;;;1.27;1.27;;;18.50;73.00;;;;;;5002620;28;20495;-78
2023/12/24 11:33:49;;;;;;;1.50;1.40;;;18.60;73.20;;;;;;5007416;28;20547;-77
2023/12/24 11:36:22;;;;;;;1.10;1.00;;;18.60;73.10;;;;;;5011361;28;20971;-79
2023/12/24 11:38:54;;;;;;;1.50;1.40;;;18.60;72.90;;;;;;5011217;28;20441;-79
2023/12/24 11:41:23;;;;;;;2.20;1.23;;;18.60;73.00;;;;;;5012011;28;20449;-78
2023/12/24 11:43:53;;;;;;;3.03;1.63;;;18.60;72.90;;;;;;5011291;28;20443;-79
2023/12/24 11:46:21;;;;;;;1.50;1.40;;;18.60;72.90;;;;;;5011272;28;20433;-79
2023/12/24 11:48:49;;;;;;;1.20;1.20;;;18.60;72.70;;;;;;5002717;28;20483;-78
2023/12/24 11:51:22;;;;;;;1.60;1.20;;;18.60;72.90;;;;;;5012689;28;20449;-79
2023/12/24 11:53:58;;;;;;;1.40;1.30;;;18.60;72.90;;;;;;5011983;28;20578;-78
2023/12/24 11:56:29;;;;;;;2.10;1.33;;;18.60;73.10;;;;;;5003108;28;20458;-80
2023/12/24 11:58:59;;;;;;;1.00;1.00;;;18.60;72.90;;;;;;5010169;28;20959;-77
2023/12/24 12:01:34;;;;;;;1.10;1.10;;;18.60;72.80;;;;;;5005505;28;20448;-79
2023/12/24 12:04:05;;;;;;;1.10;1.10;;;18.60;72.70;;;;;;5012327;28;20468;-82
2023/12/24 12:06:38;;;;;;;1.60;1.50;;;18.60;72.90;;;;;;5005653;28;20449;-81
2023/12/24 12:12:44;;;;;;;1.43;0.90;;;18.70;73.10;;;;;;5002385;28;20411;-80
2023/12/24 12:18:54;;;;;;;1.20;1.20;;;18.70;73.10;;;;;;5000272;28;20448;-80
2023/12/24 12:43:27;;;;;;;3.60;1.60;;;18.80;73.40;;;;;;5063782;28;20431;-80
2023/12/24 12:49:24;;;;;;;1.40;1.30;;;18.80;73.10;;;;;;5032816;28;20483;-80
2023/12/24 12:51:57;;;;;;;1.10;1.10;;;18.80;73.10;;;;;;5035134;28;20451;-79
2023/12/24 13:13:01;;;;;;;1.43;1.33;;;18.80;73.60;;;;;;4840177;29;20496;-82
2023/12/24 13:27:28;;;;;;;2.40;1.47;;;18.80;75.60;;;;;;5034590;28;20492;-77
2023/12/24 13:30:19;;;;;;;2.60;1.47;;;18.50;77.30;;;;;;5045424;28;20481;-77
2023/12/24 13:33:28;;;;;;;2.43;1.60;;;18.40;79.10;;;;;;5047911;28;20495;-79
2023/12/24 13:40:40;;;;;;;1.23;1.20;;;18.10;82.30;;;;;;5041027;28;20462;-78
2023/12/24 13:43:35;;;;;;;1.60;1.20;;;18.00;83.50;;;;;;5008025;28;20575;-77
2023/12/24 13:46:06;;;;;;;2.23;1.03;;;17.00;90.20;;;;;;5007652;28;20560;-77
2023/12/24 13:48:34;;;;;;;2.67;1.10;;;16.60;98.20;;;;;;5005936;28;20493;-76
2023/12/24 13:51:03;;;;;;;2.40;1.10;;;17.30;99.90;;;;;;5003617;28;20448;-77
2023/12/24 13:53:31;;;;;;;2.33;0.93;;;18.00;98.60;;;;;;5007445;28;20477;-80
2023/12/24 13:56:02;;;;;;;1.13;1.00;;;18.30;95.40;;;;;;5007994;28;20603;-80
2023/12/24 13:58:31;;;;;;;5.40;0.90;;;18.60;93.50;;;;;;5010893;28;20448;-79
2023/12/24 14:00:59;;;;;;;1.47;1.00;;;18.70;92.20;;;;;;5012354;28;20444;-78
2023/12/24 14:03:27;;;;;;;1.47;1.37;;;18.80;91.30;;;;;;5008579;28;20539;-80
2023/12/24 14:05:56;;;;;;;4.50;1.10;;;18.90;90.50;;;;;;5010097;28;20448;-78
2023/12/24 14:08:25;;;;;;;1.87;0.97;;;18.90;90.10;;;;;;5005693;28;20488;-80
2023/12/24 14:10:53;;;;;;;2.10;1.00;;;19.00;89.40;;;;;;5012356;28;20491;-76
2023/12/24 14:13:21;;;;;;;1.90;1.20;;;19.00;88.60;;;;;;5003634;28;20452;-79
2023/12/24 14:15:50;;;;;;;7.33;1.07;;;19.00;88.00;;;;;;5009383;28;20470;-81
2023/12/24 14:18:18;;;;;;;1.87;1.10;;;19.00;87.30;;;;;;5012001;28;20464;-80
2023/12/24 14:20:47;;;;;;;2.70;1.07;;;19.00;86.80;;;;;;5051866;28;20557;-82
2023/12/24 14:23:14;;;;;;;1.20;1.10;;;19.00;86.60;;;;;;5047823;28;20502;-81
2023/12/24 14:25:45;;;;;;;1.17;1.17;;;19.00;86.20;;;;;;5051461;28;20478;-80
2023/12/24 14:28:13;;;;;;;6.00;1.00;;;19.00;86.10;;;;;;5054372;28;20470;-80
2023/12/24 14:30:49;;;;;;;3.70;1.33;;;19.10;85.50;;;;;;5048797;28;21015;-79
2023/12/24 14:33:18;;;;;;;1.10;1.10;;;19.10;85.50;;;;;;5049179;28;20455;-81
2023/12/24 14:35:47;;;;;;;1.37;1.27;;;19.00;84.90;;;;;;5055688;28;20506;-77
2023/12/24 14:38:15;;;;;;;1.10;1.00;;;19.00;84.70;;;;;;5055426;28;20471;-82
2023/12/24 14:40:45;;;;;;;1.40;1.10;;;19.00;84.40;;;;;;5054788;28;20447;-76
2023/12/24 14:43:13;;;;;;;0.87;0.80;;;19.00;84.50;;;;;;5048078;28;20449;-76
2023/12/24 14:45:42;;;;;;;1.23;1.03;;;19.00;84.30;;;;;;5048787;28;20506;-80
2023/12/24 14:48:10;;;;;;;1.17;1.17;;;19.00;84.10;;;;;;5054837;28;20596;-81
2023/12/24 14:50:38;;;;;;;1.37;1.27;;;19.00;83.90;;;;;;5045293;28;20447;-80
2023/12/24 14:53:07;;;;;;;1.30;1.20;;;19.00;84.00;;;;;;5044707;28;20443;-82
2023/12/24 14:55:36;;;;;;;2.90;1.53;;;19.00;83.90;;;;;;5050598;28;20480;-80
2023/12/24 14:58:14;;;;;;;1.27;1.17;;;19.00;83.90;;;;;;5047039;28;20537;-76
2023/12/24 15:00:44;;;;;;;3.67;0.97;;;19.00;83.90;;;;;;5048480;28;20509;-82
2023/12/24 15:03:14;;;;;;;1.30;1.30;;;19.00;84.10;;;;;;5048420;28;20465;-80
2023/12/24 15:05:42;;;;;;;4.93;1.30;;;19.00;83.30;;;;;;5049885;28;20474;-79
2023/12/24 15:08:11;;;;;;;1.07;0.90;;;19.00;83.50;;;;;;5048661;28;20557;-79
2023/12/24 15:10:40;;;;;;;1.53;1.43;;;19.00;83.40;;;;;;5050998;28;20460;-78
2023/12/24 15:13:08;;;;;;;1.20;1.10;;;19.00;83.30;;;;;;5048990;28;20455;-78
2023/12/24 15:19:39;;;;;;;0.90;0.90;;;19.10;83.30;;;;;;5014230;28;21019;-79
2023/12/24 15:22:27;;;;;;;1.30;1.20;;;19.00;83.00;;;;;;5047114;28;20480;-79
2023/12/24 15:25:15;;;;;;;1.20;0.93;;;19.00;82.80;;;;;;5048473;28;20569;-82
2023/12/24 15:27:43;;;;;;;1.60;1.00;;;19.00;82.90;;;;;;5047361;28;21236;-77
2023/12/24 15:30:13;;;;;;;1.20;1.20;;;19.00;82.60;;;;;;5043976;28;20477;-79
2023/12/24 15:32:42;;;;;;;0.90;0.90;;;19.00;82.80;;;;;;5043106;28;20541;-77
2023/12/24 15:35:11;;;;;;;1.13;1.00;;;19.00;82.70;;;;;;5043390;28;20472;-76
2023/12/24 15:37:39;;;;;;;0.90;0.90;;;19.00;82.50;;;;;;5048129;28;20470;-77
2023/12/24 15:40:09;;;;;;;1.50;1.20;;;19.00;82.40;;;;;;5047080;28;20510;-77
2023/12/24 15:42:37;;;;;;;1.30;1.20;;;19.00;82.60;;;;;;5046629;28;20474;-76
2023/12/24 15:45:05;;;;;;;1.27;1.17;;;19.00;82.40;;;;;;5053797;28;20635;-76
2023/12/24 15:47:33;;;;;;;1.40;1.30;;;19.00;82.30;;;;;;5050083;28;20447;-76
2023/12/24 15:50:03;;;;;;;1.50;1.37;;;19.00;82.60;;;;;;5048118;28;20551;-76
2023/12/24 15:52:31;;;;;;;1.87;1.30;;;19.00;82.40;;;;;;5050609;28;20451;-75
2023/12/24 15:55:00;;;;;;;1.00;0.90;;;19.00;82.30;;;;;;5050290;28;20517;-79
2023/12/24 15:57:28;;;;;;;0.90;0.80;;;19.00;82.30;;;;;;5049187;28;20516;-77
2023/12/24 15:59:56;;;;;;;1.30;1.20;;;19.10;82.30;;;;;;5049818;28;20442;-75
2023/12/24 16:02:25;;;;;;;1.00;1.00;;;19.10;82.40;;;;;;5051137;28;20443;-75
2023/12/24 16:04:53;;;;;;;1.30;1.20;;;19.00;82.10;;;;;;5040963;28;20483;-79
2023/12/24 16:07:22;;;;;;;0.90;0.90;;;19.00;82.00;;;;;;5047651;28;20457;-79
2023/12/24 16:09:50;;;;;;;1.53;1.00;;;19.10;82.20;;;;;;5046870;28;20520;-75
2023/12/24 16:12:18;;;;;;;0.90;0.90;;;19.10;82.20;;;;;;5049806;28;20545;-73
2023/12/24 16:14:46;;;;;;;1.20;1.10;;;19.10;82.10;;;;;;5050282;28;20466;-75
2023/12/24 16:17:14;;;;;;;1.10;1.10;;;19.10;81.80;;;;;;5051020;28;20953;-73
2023/12/24 16:19:42;;;;;;;2.50;1.00;;;19.10;81.80;;;;;;5046090;28;20458;-75
2023/12/24 16:22:10;;;;;;;1.07;0.97;;;19.10;81.90;;;;;;5047393;28;20556;-77
2023/12/24 16:24:40;;;;;;;1.67;1.00;;;19.10;82.10;;;;;;5049757;28;20551;-76
2023/12/24 16:27:08;;;;;;;1.00;0.90;;;19.10;81.80;;;;;;5044599;28;20560;-75
2023/12/24 16:29:36;;;;;;;1.17;1.00;;;19.10;82.00;;;;;;5048672;28;20533;-76
2023/12/24 16:32:06;;;;;;;1.37;1.10;;;19.10;81.80;;;;;;5059037;28;20538;-77
2023/12/24 16:34:35;;;;;;;1.00;1.00;;;19.10;81.80;;;;;;5060872;28;20462;-76
2023/12/24 16:37:03;;;;;;;1.73;1.40;;;19.10;81.80;;;;;;5065485;28;20450;-75
2023/12/24 16:39:32;;;;;;;1.63;1.30;;;19.10;81.90;;;;;;5054739;28;20444;-77
2023/12/24 16:42:01;;;;;;;1.53;1.20;;;19.10;81.50;;;;;;5060421;28;20473;-77
2023/12/24 16:44:29;;;;;;;1.10;1.00;;;19.10;81.70;;;;;;5054822;28;20463;-76
2023/12/24 16:46:58;;;;;;;2.80;1.60;;;19.10;81.60;;;;;;5057685;28;20462;-74
2023/12/24 16:49:26;;;;;;;2.33;1.50;;;19.10;81.80;;;;;;5056348;28;20490;-76
2023/12/24 16:51:54;;;;;;;1.57;1.47;;;19.10;81.50;;;;;;5058957;28;20450;-76
2023/12/24 16:54:22;;;;;;;1.60;1.50;;;19.10;81.70;;;;;;5056572;28;20489;-76
2023/12/24 16:56:50;;;;;;;1.20;1.20;;;19.10;81.60;;;;;;5057693;28;20469;-76
2023/12/24 16:59:20;;;;;;;1.33;1.23;;;19.10;81.50;;;;;;5057191;28;20500;-74
2023/12/24 17:01:48;;;;;;;4.23;1.53;;;19.10;81.40;;;;;;5060122;28;20451;-76
2023/12/24 17:04:16;;;;;;;1.50;1.40;;;19.10;81.20;;;;;;5060793;28;20471;-75
2023/12/24 17:06:44;;;;;;;4.07;1.50;;;19.10;81.40;;;;;;5053444;28;20468;-79
2023/12/24 17:09:14;;;;;;;1.90;1.43;;;19.10;81.20;;;;;;5068306;28;20489;-75
2023/12/24 17:11:45;;;;;;;1.60;1.50;;;19.10;81.20;;;;;;5058849;28;20450;-74
2023/12/24 17:14:13;;;;;;;2.17;1.47;;;19.10;81.10;;;;;;5064277;28;20473;-76
2023/12/24 17:16:43;;;;;;;2.23;1.90;;;19.10;81.20;;;;;;5061334;28;20454;-76
2023/12/24 17:19:11;;;;;;;1.63;1.53;;;19.20;81.40;;;;;;5057461;28;20446;-74
2023/12/24 17:21:39;;;;;;;1.20;1.10;;;19.20;81.40;;;;;;5061029;28;20476;-75
2023/12/24 17:24:07;;;;;;;1.30;1.30;;;19.20;81.20;;;;;;5065283;28;20787;-76
2023/12/24 17:26:39;;;;;;;2.10;1.53;;;19.20;81.30;;;;;;5053711;28;20455;-74
2023/12/24 17:29:07;;;;;;;3.17;1.67;;;19.20;81.30;;;;;;5063715;28;20430;-76
2023/12/24 17:31:35;;;;;;;1.57;1.47;;;19.20;81.50;;;;;;5059070;28;20402;-74
2023/12/24 17:34:04;;;;;;;2.73;1.53;;;19.20;81.30;;;;;;5060149;28;20486;-75
2023/12/24 17:36:33;;;;;;;1.80;1.20;;;19.20;81.30;;;;;;5056881;28;20401;-77
2023/12/24 17:39:01;;;;;;;1.90;1.67;;;19.20;81.40;;;;;;5059996;28;20420;-75
2023/12/24 17:41:28;;;;;;;2.50;1.73;;;19.20;81.40;;;;;;5058090;28;20438;-74
2023/12/24 17:43:57;;;;;;;2.60;1.43;;;19.20;81.10;;;;;;5057601;28;20523;-76
2023/12/24 17:46:28;;;;;;;1.70;1.60;;;19.20;81.50;;;;;;5061608;28;20474;-74
2023/12/24 17:48:56;;;;;;;1.47;1.37;;;19.20;80.90;;;;;;5053403;28;20488;-76
2023/12/24 17:51:26;;;;;;;1.50;1.40;;;19.20;81.40;;;;;;5061296;28;20441;-76
2023/12/24 17:53:55;;;;;;;1.83;1.73;;;19.20;81.40;;;;;;5053799;28;21007;-76
2023/12/24 17:56:23;;;;;;;1.50;1.40;;;19.20;81.10;;;;;;5048640;28;20439;-75
2023/12/24 17:58:52;;;;;;;1.43;1.33;;;19.20;81.10;;;;;;5051982;28;20470;-76
2023/12/24 18:01:20;;;;;;;1.70;1.60;;;19.20;81.50;;;;;;5055815;28;20420;-75
2023/12/24 18:03:48;;;;;;;1.70;1.60;;;19.20;81.40;;;;;;5050940;28;20481;-77
2023/12/24 18:06:17;;;;;;;7.23;2.03;;;19.20;81.40;;;;;;5049880;28;20417;-75
2023/12/24 18:08:48;;;;;;;9.20;1.80;;;19.20;82.50;;;;;;5049691;28;20945;-76
2023/12/24 18:11:16;;;;;;;2.53;2.43;;;19.30;83.30;;;;;;5049477;28;20532;-75
2023/12/24 18:13:45;;;;;;;3.10;2.03;;;19.40;83.60;;;;;;5051092;28;20517;-75
2023/12/24 18:16:13;;;;;;;2.50;2.00;;;19.40;83.70;;;;;;5050497;28;20450;-77
2023/12/24 18:18:41;;;;;;;2.20;2.00;;;19.40;84.10;;;;;;5049509;28;20530;-78
2023/12/24 18:21:10;;;;;;;2.70;2.30;;;19.50;84.20;;;;;;5052118;28;20453;-75
2023/12/24 18:23:38;;;;;;;2.93;2.20;;;19.40;83.90;;;;;;5053146;28;20472;-78
2023/12/24 18:26:15;;;;;;;2.27;2.10;;;19.40;84.20;;;;;;5053276;28;20443;-76
2023/12/24 18:28:43;;;;;;;7.93;2.40;;;19.40;84.30;;;;;;5049046;28;20434;-77
2023/12/24 18:31:11;;;;;;;4.10;2.13;;;19.40;83.70;;;;;;5049729;28;20441;-77
2023/12/24 18:33:39;;;;;;;4.20;2.20;;;19.40;83.90;;;;;;5044080;28;20504;-76
2023/12/24 18:36:08;;;;;;;3.70;2.50;;;19.40;83.80;;;;;;5035337;28;20425;-76
2023/12/24 18:38:36;;;;;;;3.43;2.33;;;19.40;84.10;;;;;;5043560;28;20489;-76
2023/12/24 18:41:05;;;;;;;2.23;2.00;;;19.30;83.80;;;;;;5043943;28;20422;-75
2023/12/24 18:43:34;;;;;;;4.00;2.27;;;19.40;83.90;;;;;;5047757;28;20520;-77
2023/12/24 18:46:04;;;;;;;21.17;2.40;;;19.30;83.80;;;;;;5042454;28;20455;-76
2023/12/24 18:48:32;;;;;;;5.73;2.53;;;19.30;83.70;;;;;;5046126;28;20522;-77
2023/12/24 18:51:01;;;;;;;3.90;2.10;;;19.40;83.90;;;;;;5043153;28;20466;-75
2023/12/24 18:53:28;;;;;;;3.73;2.10;;;19.40;83.60;;;;;;5045521;28;20508;-77
2023/12/24 18:55:57;;;;;;;2.80;2.33;;;19.30;83.40;;;;;;5046560;28;20477;-77
2023/12/24 18:58:26;;;;;;;4.40;2.40;;;19.30;83.80;;;;;;5041856;28;20482;-77
2023/12/24 19:00:56;;;;;;;8.87;2.87;;;19.40;83.60;;;;;;5044519;28;21014;-77
2023/12/24 19:03:25;;;;;;;4.17;2.57;;;19.40;83.30;;;;;;5042335;28;20425;-74
2023/12/24 19:05:53;;;;;;;4.93;2.60;;;19.40;83.40;;;;;;5043271;28;20490;-76